Time;durP1;ratioP1;P1;durP2;ratioP2;P2;SDS_P1;SDS_P2;PMS_P1;PMS_P2;Temp;Humidity;BMP_temperature;BMP_pressure;BME280_temperature;BME280_humidity;BME280_pressure;Samples;Min_cycle;Max_cycle;Signal;HPM_P1;HPM_P2
2023/06/25 00:01:28;;;;;;;8.73;4.10;;;20.10;99.90;;;;;;4984957;28;20069;-71
2023/06/25 00:03:54;;;;;;;10.38;5.32;;;20.10;99.90;;;;;;4987724;28;20104;-71
2023/06/25 00:06:19;;;;;;;9.07;5.07;;;20.10;99.90;;;;;;4983677;28;20042;-71
2023/06/25 00:08:46;;;;;;;12.23;5.47;;;20.00;99.90;;;;;;4981378;28;20038;-71
2023/06/25 00:11:12;;;;;;;8.15;5.45;;;20.00;99.90;;;;;;4987649;28;20038;-71
2023/06/25 00:13:38;;;;;;;10.32;5.13;;;20.00;99.90;;;;;;4980877;28;20042;-71
2023/06/25 00:16:04;;;;;;;9.45;4.95;;;20.00;99.90;;;;;;4970803;28;20048;-71
2023/06/25 00:18:32;;;;;;;11.15;5.30;;;20.00;99.90;;;;;;5004831;28;20049;-71
2023/06/25 00:20:58;;;;;;;9.00;5.05;;;19.90;99.90;;;;;;4980276;28;20046;-71
2023/06/25 00:23:24;;;;;;;10.60;5.53;;;19.90;99.90;;;;;;5001935;28;20535;-71
2023/06/25 00:25:50;;;;;;;15.75;6.45;;;19.90;99.90;;;;;;5004866;28;20094;-71
2023/06/25 00:28:16;;;;;;;12.00;5.70;;;19.80;99.90;;;;;;4983818;28;20569;-71
2023/06/25 00:30:42;;;;;;;9.82;5.22;;;19.80;99.90;;;;;;4981520;28;20049;-71
2023/06/25 00:33:08;;;;;;;9.18;5.25;;;19.80;99.90;;;;;;4989285;28;20316;-71
2023/06/25 00:35:49;;;;;;;9.23;5.78;;;19.80;99.90;;;;;;5006443;28;20041;-71
2023/06/25 00:38:15;;;;;;;13.50;6.07;;;19.80;99.90;;;;;;4987342;28;20029;-71
2023/06/25 00:40:40;;;;;;;10.95;5.75;;;19.70;99.90;;;;;;4989803;28;20037;-71
2023/06/25 00:43:06;;;;;;;11.05;6.18;;;19.70;99.90;;;;;;4977269;28;20568;-71
2023/06/25 00:45:33;;;;;;;9.73;5.90;;;19.70;99.90;;;;;;4988026;28;20426;-71
2023/06/25 00:47:59;;;;;;;15.10;6.65;;;19.70;99.90;;;;;;4999966;28;20077;-71
2023/06/25 00:50:25;;;;;;;11.65;6.35;;;19.70;99.90;;;;;;4981429;28;20496;-71
2023/06/25 00:52:52;;;;;;;9.63;6.07;;;19.60;99.90;;;;;;5000307;28;20038;-71
2023/06/25 00:55:19;;;;;;;9.57;6.25;;;19.60;99.90;;;;;;4988125;28;20117;-71
2023/06/25 00:57:45;;;;;;;13.63;6.43;;;19.60;99.90;;;;;;4983013;28;20038;-71
2023/06/25 01:00:16;;;;;;;10.40;5.97;;;19.60;99.90;;;;;;4964003;28;20129;-71
2023/06/25 01:03:03;;;;;;;11.35;5.63;;;19.60;99.90;;;;;;4988481;28;20072;-71
2023/06/25 01:05:31;;;;;;;;;;;19.60;99.90;;;;;;4988761;28;20469;-71
2023/06/25 01:07:58;;;;;;;;;;;19.50;99.90;;;;;;4992195;28;19917;-71
2023/06/25 01:10:25;;;;;;;11.02;6.05;;;19.50;99.90;;;;;;4991191;28;19921;-71
2023/06/25 01:12:52;;;;;;;9.68;6.18;;;19.50;99.90;;;;;;4988667;28;20034;-71
2023/06/25 01:15:18;;;;;;;10.43;6.28;;;19.50;99.90;;;;;;4972413;28;20038;-71
2023/06/25 01:17:48;;;;;;;13.07;7.60;;;19.50;99.90;;;;;;4987061;28;20076;-71
2023/06/25 01:20:15;;;;;;;11.00;6.78;;;19.50;99.90;;;;;;4991489;28;20456;-71
2023/06/25 01:22:41;;;;;;;13.70;7.47;;;19.40;99.90;;;;;;4986098;28;20037;-71
2023/06/25 01:25:07;;;;;;;14.55;7.38;;;19.40;99.90;;;;;;4987504;28;20131;-79
2023/06/25 01:27:34;;;;;;;13.52;7.43;;;19.40;99.90;;;;;;4992232;28;20053;-73
2023/06/25 01:30:01;;;;;;;15.00;7.43;;;19.40;99.90;;;;;;4992075;28;20155;-71
2023/06/25 01:32:26;;;;;;;15.52;7.03;;;19.40;99.90;;;;;;4991746;28;20045;-72
2023/06/25 01:34:52;;;;;;;14.30;7.03;;;19.40;99.90;;;;;;4987553;28;20046;-76
2023/06/25 01:37:18;;;;;;;12.82;6.65;;;19.40;99.90;;;;;;4985653;28;20052;-76
2023/06/25 01:39:55;;;;;;;10.70;6.18;;;19.40;99.90;;;;;;4975171;28;20068;-75
2023/06/25 01:42:20;;;;;;;;;;;19.30;99.90;;;;;;4996862;28;20060;-73
2023/06/25 01:44:46;;;;;;;9.90;6.28;;;19.30;99.90;;;;;;4983434;28;19917;-71
2023/06/25 01:47:13;;;;;;;13.93;6.65;;;19.30;99.90;;;;;;4989101;28;20123;-74
2023/06/25 01:49:39;;;;;;;12.65;6.22;;;19.30;99.90;;;;;;4994382;28;20072;-73
2023/06/25 01:52:07;;;;;;;10.05;6.28;;;19.30;99.90;;;;;;4969829;28;20125;-76
2023/06/25 01:54:33;;;;;;;11.50;6.38;;;19.30;99.90;;;;;;4982617;28;20051;-71
2023/06/25 01:56:59;;;;;;;;;;;19.20;99.90;;;;;;4986117;28;20042;-71
2023/06/25 01:59:25;;;;;;;9.60;5.80;;;19.20;99.90;;;;;;4990614;28;19925;-71
2023/06/25 02:01:51;;;;;;;15.93;7.35;;;19.20;99.90;;;;;;4987644;28;20045;-71
2023/06/25 02:04:16;;;;;;;11.23;5.95;;;19.20;99.90;;;;;;4983532;28;20093;-71
2023/06/25 02:06:42;;;;;;;14.93;7.47;;;19.10;99.90;;;;;;4980238;28;20116;-71
2023/06/25 02:09:08;;;;;;;13.70;6.60;;;19.10;99.90;;;;;;4975509;28;20129;-71
2023/06/25 02:11:33;;;;;;;11.02;6.80;;;19.10;99.90;;;;;;4987045;28;20053;-71
2023/06/25 02:13:59;;;;;;;11.90;6.80;;;19.10;99.90;;;;;;4987573;28;20042;-71
2023/06/25 02:16:25;;;;;;;11.77;7.03;;;19.10;99.90;;;;;;4984490;28;20046;-71
2023/06/25 02:18:53;;;;;;;12.77;6.80;;;19.00;99.90;;;;;;4990393;28;20041;-71
2023/06/25 02:21:19;;;;;;;12.75;6.95;;;19.00;99.90;;;;;;4988573;28;20438;-72
2023/06/25 02:23:44;;;;;;;;;;;19.00;99.90;;;;;;4988871;28;20143;-71
2023/06/25 02:26:10;;;;;;;11.50;7.03;;;19.00;99.90;;;;;;4991017;28;19964;-71
2023/06/25 02:28:36;;;;;;;14.73;6.38;;;19.00;99.90;;;;;;4987765;28;20081;-72
2023/06/25 02:31:01;;;;;;;12.35;7.40;;;19.00;99.90;;;;;;4991237;28;20139;-70
2023/06/25 02:33:27;;;;;;;10.75;7.07;;;18.90;99.90;;;;;;4992652;28;20103;-71
2023/06/25 02:35:53;;;;;;;11.38;5.80;;;18.90;99.90;;;;;;4994847;28;20053;-71
2023/06/25 02:38:18;;;;;;;10.48;5.95;;;18.90;99.90;;;;;;4991600;28;20037;-71
2023/06/25 02:40:44;;;;;;;10.52;6.22;;;18.90;99.90;;;;;;4987736;28;20413;-71
2023/06/25 02:43:10;;;;;;;12.43;6.40;;;18.90;99.90;;;;;;5010802;28;20522;-71
2023/06/25 02:45:35;;;;;;;11.00;6.45;;;18.90;99.90;;;;;;5003493;28;20048;-70
2023/06/25 02:48:01;;;;;;;11.77;6.05;;;18.80;99.90;;;;;;4993272;28;20046;-70
2023/06/25 02:50:27;;;;;;;10.65;6.30;;;18.80;99.90;;;;;;5001497;28;20046;-71
2023/06/25 02:52:52;;;;;;;10.10;6.65;;;18.80;99.90;;;;;;4985589;28;20034;-71
2023/06/25 02:55:18;;;;;;;12.13;6.40;;;18.70;99.90;;;;;;4990388;28;20552;-71
2023/06/25 02:57:44;;;;;;;11.88;6.75;;;18.70;99.90;;;;;;4986670;28;20034;-71
2023/06/25 03:00:10;;;;;;;10.52;5.75;;;18.70;99.90;;;;;;4974903;28;20144;-71
2023/06/25 03:02:35;;;;;;;10.65;6.63;;;18.70;99.90;;;;;;4976838;28;20381;-71
2023/06/25 03:05:01;;;;;;;11.02;6.72;;;18.70;99.90;;;;;;4990619;28;20052;-71
2023/06/25 03:07:27;;;;;;;11.10;6.88;;;18.70;99.90;;;;;;4993909;28;20133;-71
2023/06/25 03:09:52;;;;;;;12.82;6.60;;;18.70;99.90;;;;;;5011183;28;20185;-71
2023/06/25 03:12:18;;;;;;;12.30;7.10;;;18.70;99.90;;;;;;4975826;28;20034;-71
2023/06/25 03:14:43;;;;;;;10.73;6.70;;;18.60;99.90;;;;;;4991918;28;20073;-71
2023/06/25 03:17:09;;;;;;;10.73;6.85;;;18.60;99.90;;;;;;4985966;28;20102;-70
2023/06/25 03:19:35;;;;;;;10.57;6.43;;;18.60;99.90;;;;;;5009676;28;20042;-71
2023/06/25 03:22:00;;;;;;;10.60;6.43;;;18.60;99.90;;;;;;4992500;28;20121;-71
2023/06/25 03:24:26;;;;;;;11.23;6.57;;;18.60;99.90;;;;;;4990157;28;20061;-71
2023/06/25 03:26:52;;;;;;;10.73;6.75;;;18.60;99.90;;;;;;4994467;28;20049;-71
2023/06/25 03:29:18;;;;;;;11.18;6.28;;;18.60;99.90;;;;;;4990014;28;20049;-71
2023/06/25 03:31:43;;;;;;;10.77;6.68;;;18.60;99.90;;;;;;4992277;28;20427;-71
2023/06/25 03:34:09;;;;;;;12.20;6.95;;;18.60;99.90;;;;;;4989192;28;20050;-71
2023/06/25 03:36:35;;;;;;;11.48;6.68;;;18.60;99.90;;;;;;4992121;28;20483;-71
2023/06/25 03:39:00;;;;;;;16.35;7.40;;;18.60;99.90;;;;;;4994853;28;20551;-71
2023/06/25 03:41:26;;;;;;;9.00;6.10;;;18.60;99.90;;;;;;4978647;28;20042;-71
2023/06/25 03:43:52;;;;;;;10.68;5.88;;;18.50;99.90;;;;;;4989956;28;20140;-71
2023/06/25 03:46:17;;;;;;;13.77;6.65;;;18.50;99.90;;;;;;4971273;28;20480;-71
2023/06/25 03:48:44;;;;;;;12.52;7.40;;;18.60;99.90;;;;;;4997930;28;20038;-71
2023/06/25 03:51:10;;;;;;;10.63;6.47;;;18.60;99.90;;;;;;4991446;28;20124;-71
2023/06/25 03:53:38;;;;;;;13.45;6.82;;;18.50;99.90;;;;;;4999100;28;20444;-71
2023/06/25 03:56:04;;;;;;;11.80;6.53;;;18.50;99.90;;;;;;4990766;28;20042;-71
2023/06/25 03:58:30;;;;;;;13.27;7.35;;;18.50;99.90;;;;;;4991178;28;20487;-71
2023/06/25 04:00:56;;;;;;;14.15;7.75;;;18.50;99.90;;;;;;4990476;28;20045;-71
2023/06/25 04:03:22;;;;;;;11.40;6.72;;;18.50;99.90;;;;;;5010684;28;20679;-71
2023/06/25 04:05:48;;;;;;;13.00;6.85;;;18.50;99.90;;;;;;4975430;28;20048;-71
2023/06/25 04:08:14;;;;;;;11.90;6.80;;;18.50;99.90;;;;;;4990247;28;20050;-71
2023/06/25 04:10:40;;;;;;;10.90;6.25;;;18.50;99.90;;;;;;4992589;28;20081;-71
2023/06/25 04:13:06;;;;;;;11.00;6.70;;;18.50;99.90;;;;;;4990521;28;20512;-71
2023/06/25 04:15:32;;;;;;;11.98;6.53;;;18.50;99.90;;;;;;4991702;28;20072;-71
2023/06/25 04:17:58;;;;;;;10.60;6.32;;;18.50;99.90;;;;;;4988209;28;20121;-71
2023/06/25 04:20:26;;;;;;;13.80;6.75;;;18.50;99.90;;;;;;4993044;28;20129;-71
2023/06/25 04:22:52;;;;;;;12.88;6.82;;;18.60;99.90;;;;;;4994536;28;20042;-71
2023/06/25 04:25:17;;;;;;;13.52;7.18;;;18.60;99.90;;;;;;4991730;28;20037;-72
2023/06/25 04:27:43;;;;;;;11.25;6.47;;;18.60;99.90;;;;;;4988715;28;20081;-71
2023/06/25 04:30:10;;;;;;;12.15;6.43;;;18.60;99.90;;;;;;4991510;28;20153;-71
2023/06/25 04:32:36;;;;;;;12.68;6.75;;;18.60;99.90;;;;;;5005423;28;20045;-71
2023/06/25 04:35:02;;;;;;;13.27;6.60;;;18.70;99.90;;;;;;4986228;28;20062;-71
2023/06/25 04:37:27;;;;;;;10.88;6.90;;;18.70;99.90;;;;;;5003426;28;20041;-71
2023/06/25 04:39:53;;;;;;;10.95;6.63;;;18.70;99.90;;;;;;4989153;28;20053;-71
2023/06/25 04:42:19;;;;;;;13.85;6.85;;;18.70;99.90;;;;;;4991823;28;20518;-71
2023/06/25 04:44:45;;;;;;;11.70;6.40;;;18.80;99.90;;;;;;4990996;28;20658;-71
2023/06/25 04:47:11;;;;;;;9.68;6.47;;;18.80;99.90;;;;;;4991623;28;20046;-71
2023/06/25 04:49:36;;;;;;;10.75;6.20;;;18.80;99.90;;;;;;4991337;28;20120;-71
2023/06/25 04:52:03;;;;;;;12.73;6.75;;;18.80;99.90;;;;;;4990327;28;20042;-71
2023/06/25 04:54:28;;;;;;;;;;;18.90;99.90;;;;;;4991239;28;20041;-71
2023/06/25 04:56:54;;;;;;;11.30;6.82;;;18.90;99.90;;;;;;4997848;28;20331;-71
2023/06/25 04:59:19;;;;;;;11.55;7.25;;;18.90;99.90;;;;;;4989078;28;20045;-71
2023/06/25 05:01:45;;;;;;;11.43;6.32;;;19.00;99.90;;;;;;4991327;28;20054;-71
2023/06/25 05:04:11;;;;;;;12.25;7.07;;;19.00;99.90;;;;;;4979820;28;20046;-71
2023/06/25 05:06:36;;;;;;;9.98;6.03;;;19.10;99.90;;;;;;4990975;28;20042;-72
2023/06/25 05:09:02;;;;;;;12.80;6.60;;;19.10;99.90;;;;;;4975938;28;20124;-71
2023/06/25 05:11:28;;;;;;;12.65;6.28;;;19.10;99.90;;;;;;4991174;28;20049;-71
2023/06/25 05:13:53;;;;;;;14.05;7.00;;;19.20;99.90;;;;;;4984702;28;20046;-71
2023/06/25 05:16:19;;;;;;;10.77;6.60;;;19.20;99.90;;;;;;4986046;28;20089;-71
2023/06/25 05:18:45;;;;;;;9.43;6.40;;;19.20;99.90;;;;;;4992479;28;20397;-71
2023/06/25 05:21:10;;;;;;;9.65;6.13;;;19.30;99.90;;;;;;4971555;28;20046;-70
2023/06/25 05:23:55;;;;;;;11.13;5.60;;;19.30;99.90;;;;;;4992014;28;20046;-71
2023/06/25 05:26:21;;;;;;;12.30;6.28;;;19.40;99.90;;;;;;4987779;28;20049;-72
2023/06/25 05:28:47;;;;;;;9.52;5.47;;;19.40;99.90;;;;;;4987894;28;20523;-71
2023/06/25 05:31:12;;;;;;;13.20;6.53;;;19.50;99.90;;;;;;4989485;28;20057;-71
2023/06/25 05:33:38;;;;;;;11.52;5.55;;;19.50;99.90;;;;;;4995570;28;20050;-71
2023/06/25 05:36:04;;;;;;;8.13;5.20;;;19.50;99.90;;;;;;4991794;28;20044;-71
2023/06/25 05:38:30;;;;;;;8.40;5.07;;;19.60;99.90;;;;;;4997057;28;20467;-71
2023/06/25 05:40:56;;;;;;;11.93;5.68;;;19.60;99.90;;;;;;4991709;28;20228;-71
2023/06/25 05:43:21;;;;;;;8.55;4.82;;;19.60;99.90;;;;;;4978438;28;20489;-71
2023/06/25 05:45:47;;;;;;;8.60;5.32;;;19.70;99.90;;;;;;4994426;28;20511;-71
2023/06/25 05:48:13;;;;;;;6.80;4.22;;;19.70;99.90;;;;;;4988988;28;20374;-71
2023/06/25 05:50:38;;;;;;;10.00;5.40;;;19.80;99.90;;;;;;4990705;28;20045;-71
2023/06/25 05:53:04;;;;;;;10.07;4.75;;;19.80;99.90;;;;;;4991794;28;20125;-71
2023/06/25 05:55:30;;;;;;;7.97;4.70;;;19.90;99.90;;;;;;4974144;28;20034;-71
2023/06/25 05:57:56;;;;;;;7.90;4.78;;;19.90;99.90;;;;;;4987732;28;20049;-71
2023/06/25 06:00:23;;;;;;;9.23;4.40;;;20.00;99.90;;;;;;4991375;28;20041;-71
2023/06/25 06:02:48;;;;;;;9.50;4.50;;;20.00;99.90;;;;;;4989542;28;20046;-71
2023/06/25 06:05:14;;;;;;;6.78;4.22;;;20.10;99.90;;;;;;4985991;28;20489;-71
2023/06/25 06:07:40;;;;;;;8.20;4.63;;;20.20;99.90;;;;;;5004134;28;20469;-71
2023/06/25 06:10:06;;;;;;;8.77;4.95;;;20.20;99.90;;;;;;4994127;28;20084;-71
2023/06/25 06:12:32;;;;;;;7.43;4.57;;;20.20;99.90;;;;;;4995193;28;20052;-71
2023/06/25 06:14:58;;;;;;;7.63;4.40;;;20.30;99.90;;;;;;4988190;28;20492;-71
2023/06/25 06:17:23;;;;;;;8.55;4.63;;;20.30;99.90;;;;;;4972729;28;20111;-71
2023/06/25 06:19:49;;;;;;;9.25;4.75;;;20.40;99.90;;;;;;4992034;28;20042;-71
2023/06/25 06:22:16;;;;;;;9.13;5.03;;;20.40;99.90;;;;;;4991757;28;20057;-71
2023/06/25 06:24:42;;;;;;;6.80;4.22;;;20.50;99.90;;;;;;4979009;28;20049;-71
2023/06/25 06:27:08;;;;;;;7.70;4.20;;;20.60;99.90;;;;;;4970188;28;20423;-71
2023/06/25 06:29:34;;;;;;;8.70;4.93;;;20.60;99.90;;;;;;4988123;28;20046;-71
2023/06/25 06:31:59;;;;;;;8.75;5.32;;;20.60;99.90;;;;;;4986806;28;20533;-71
2023/06/25 06:34:25;;;;;;;8.77;5.03;;;20.70;99.90;;;;;;4988866;28;20365;-71
2023/06/25 06:36:51;;;;;;;7.85;4.30;;;20.80;99.90;;;;;;4986473;28;20113;-71
2023/06/25 06:39:17;;;;;;;7.90;4.95;;;20.80;99.90;;;;;;4985375;28;20097;-71
2023/06/25 06:41:43;;;;;;;;;;;20.90;99.90;;;;;;4989869;28;20037;-71
2023/06/25 06:44:18;;;;;;;8.32;4.93;;;21.00;99.90;;;;;;4989239;28;19944;-71
2023/06/25 06:46:45;;;;;;;7.35;4.78;;;21.00;99.90;;;;;;4987111;28;20142;-71
2023/06/25 06:49:11;;;;;;;10.40;5.57;;;21.10;99.90;;;;;;4993897;28;20515;-71
2023/06/25 06:51:38;;;;;;;11.13;6.32;;;21.10;99.90;;;;;;4989589;28;20052;-71
2023/06/25 06:54:04;;;;;;;9.73;6.03;;;21.20;99.90;;;;;;4975179;28;20032;-70
2023/06/25 06:56:30;;;;;;;8.05;5.68;;;21.30;99.90;;;;;;4990026;28;20034;-71
2023/06/25 06:58:56;;;;;;;12.13;6.40;;;21.40;99.90;;;;;;4987945;28;20029;-71
2023/06/25 07:01:22;;;;;;;;;;;21.40;99.90;;;;;;4985535;28;20046;-71
2023/06/25 07:03:47;;;;;;;12.55;6.20;;;21.50;99.90;;;;;;4982691;28;19917;-72
2023/06/25 07:06:13;;;;;;;;;;;21.60;99.90;;;;;;4985730;28;20415;-71
2023/06/25 07:08:39;;;;;;;11.15;7.45;;;21.60;99.90;;;;;;5003924;28;19995;-71
2023/06/25 07:11:04;;;;;;;12.75;6.55;;;21.70;99.90;;;;;;4987360;28;20633;-71
2023/06/25 07:13:30;;;;;;;;;;;21.70;99.90;;;;;;5007252;28;20100;-72
2023/06/25 07:15:56;;;;;;;9.93;7.03;;;21.80;99.90;;;;;;4989413;28;19928;-71
2023/06/25 07:18:21;;;;;;;;;;;21.80;99.90;;;;;;4974646;28;20034;-71
2023/06/25 07:20:47;;;;;;;10.98;6.63;;;21.90;99.90;;;;;;4991555;28;20240;-71
2023/06/25 07:23:12;;;;;;;;;;;22.00;99.90;;;;;;4984784;28;20037;-72
2023/06/25 07:25:38;;;;;;;10.45;7.07;;;22.10;99.90;;;;;;4991368;28;19921;-71
2023/06/25 07:28:04;;;;;;;;;;;22.10;99.90;;;;;;4991013;28;20052;-71
2023/06/25 07:30:29;;;;;;;13.88;7.35;;;22.20;99.90;;;;;;4972403;28;19922;-72
2023/06/25 07:32:57;;;;;;;;;;;22.30;99.90;;;;;;4995107;28;20041;-72
2023/06/25 07:35:23;;;;;;;10.00;7.03;;;22.40;99.90;;;;;;4987991;28;19925;-71
2023/06/25 07:37:48;;;;;;;;;;;22.40;99.90;;;;;;5007721;28;20045;-72
2023/06/25 07:40:14;;;;;;;13.18;7.63;;;22.50;99.90;;;;;;4990169;28;20691;-76
2023/06/25 07:42:40;;;;;;;11.98;6.97;;;22.60;99.90;;;;;;4989688;28;20515;-72
2023/06/25 07:45:06;;;;;;;;;;;22.70;99.90;;;;;;4989332;28;20080;-71
2023/06/25 07:47:32;;;;;;;9.95;7.20;;;22.70;99.90;;;;;;4987727;28;20290;-73
2023/06/25 07:49:57;;;;;;;;;;;22.80;99.90;;;;;;4988192;28;20064;-77
2023/06/25 07:52:23;;;;;;;9.68;6.90;;;22.90;99.90;;;;;;4975750;28;19917;-73
2023/06/25 07:54:48;;;;;;;;;;;23.00;99.90;;;;;;4991669;28;20053;-72
2023/06/25 07:57:15;;;;;;;15.65;7.63;;;23.00;99.90;;;;;;4983718;28;20292;-77
2023/06/25 07:59:40;;;;;;;12.25;8.35;;;23.10;99.90;;;;;;4974652;28;20048;-72
2023/06/25 08:02:06;;;;;;;;;;;23.20;99.90;;;;;;4991838;28;20504;-77
2023/06/25 08:04:32;;;;;;;12.75;7.68;;;23.30;99.90;;;;;;4974087;28;20662;-74
2023/06/25 08:06:58;;;;;;;13.32;7.80;;;23.40;99.90;;;;;;4990909;28;20125;-76
2023/06/25 08:09:24;;;;;;;10.30;6.82;;;23.50;99.90;;;;;;4979890;28;20041;-77
2023/06/25 08:11:49;;;;;;;;;;;23.50;99.90;;;;;;4976810;28;20046;-77
2023/06/25 08:14:15;;;;;;;9.52;6.85;;;23.60;99.90;;;;;;4991410;28;20392;-81
2023/06/25 08:16:41;;;;;;;;;;;23.70;99.90;;;;;;4976787;28;20092;-75
2023/06/25 08:19:06;;;;;;;9.00;6.13;;;23.70;99.90;;;;;;4984400;28;20128;-75
2023/06/25 08:21:32;;;;;;;;;;;23.80;99.90;;;;;;4988328;28;20030;-75
2023/06/25 08:23:58;;;;;;;11.65;5.90;;;23.90;99.90;;;;;;4991710;28;19923;-75
2023/06/25 08:26:23;;;;;;;;;;;23.90;99.90;;;;;;5007641;28;20104;-75
2023/06/25 08:28:49;;;;;;;13.07;6.50;;;24.00;99.90;;;;;;4981953;28;19925;-76
2023/06/25 08:31:14;;;;;;;;;;;24.10;99.90;;;;;;4989649;28;20080;-75
2023/06/25 08:33:43;;;;;;;8.10;5.30;;;24.20;99.90;;;;;;4987653;28;19921;-75
2023/06/25 08:36:08;;;;;;;10.45;6.30;;;24.30;99.90;;;;;;4988819;28;20045;-75
2023/06/25 08:38:37;;;;;;;12.07;5.55;;;24.40;99.90;;;;;;4973640;28;20121;-75
2023/06/25 08:41:05;;;;;;;10.20;5.10;;;24.40;99.90;;;;;;4992706;28;20046;-75
2023/06/25 08:43:34;;;;;;;9.15;5.53;;;24.50;99.90;;;;;;4982866;28;20064;-76
2023/06/25 08:46:00;;;;;;;7.82;5.00;;;24.60;99.90;;;;;;4987727;28;20451;-75
2023/06/25 08:48:31;;;;;;;7.95;4.60;;;24.70;99.90;;;;;;4989819;28;20061;-75
2023/06/25 08:51:21;;;;;;;7.32;4.85;;;24.80;99.90;;;;;;4984373;28;20070;-75
2023/06/25 08:53:47;;;;;;;7.32;5.00;;;24.90;99.90;;;;;;4985860;28;20045;-75
2023/06/25 08:56:15;;;;;;;8.18;5.00;;;24.90;99.90;;;;;;4986291;28;20377;-76
2023/06/25 08:58:41;;;;;;;8.48;4.93;;;25.00;99.90;;;;;;4986150;28;20037;-75
2023/06/25 09:01:07;;;;;;;9.50;5.55;;;25.10;99.90;;;;;;5004679;28;20388;-73
2023/06/25 09:03:32;;;;;;;8.00;4.47;;;25.20;99.90;;;;;;4986818;28;20492;-75
2023/06/25 09:05:58;;;;;;;7.78;3.95;;;25.20;99.90;;;;;;4985185;28;20046;-75
2023/06/25 09:08:25;;;;;;;5.47;3.90;;;25.30;99.90;;;;;;4980670;28;20042;-77
2023/06/25 09:10:56;;;;;;;5.43;3.60;;;25.50;99.90;;;;;;4993523;28;20066;-80
2023/06/25 09:13:26;;;;;;;5.80;3.58;;;25.60;99.90;;;;;;4991527;28;20042;-81
2023/06/25 09:16:03;;;;;;;6.10;3.92;;;25.70;99.90;;;;;;4987119;28;20037;-76
2023/06/25 09:18:30;;;;;;;6.40;3.65;;;25.80;99.90;;;;;;4986013;28;20088;-76
2023/06/25 09:21:01;;;;;;;5.68;3.25;;;25.90;99.90;;;;;;4984892;28;20503;-76
2023/06/25 09:23:27;;;;;;;4.45;3.22;;;26.10;99.90;;;;;;5004631;28;20045;-75
2023/06/25 09:25:53;;;;;;;4.60;3.55;;;26.10;99.90;;;;;;4987282;28;20111;-75
2023/06/25 09:28:19;;;;;;;3.88;2.97;;;26.20;99.90;;;;;;4989105;28;20034;-75
2023/06/25 09:30:45;;;;;;;4.65;3.05;;;26.30;99.90;;;;;;4985019;28;20133;-75
2023/06/25 09:33:12;;;;;;;4.30;3.20;;;26.40;99.90;;;;;;4989106;28;20112;-75
2023/06/25 09:35:38;;;;;;;5.28;3.35;;;26.50;99.90;;;;;;4987153;28;20047;-75
2023/06/25 09:38:04;;;;;;;5.20;3.42;;;26.60;99.90;;;;;;4984894;28;20048;-75
2023/06/25 09:40:30;;;;;;;6.20;3.22;;;26.70;99.90;;;;;;4969089;28;20046;-75
2023/06/25 09:42:57;;;;;;;5.25;3.00;;;26.70;99.90;;;;;;4987528;28;20512;-75
2023/06/25 09:45:25;;;;;;;7.32;3.30;;;26.80;99.90;;;;;;4986569;28;20565;-76
2023/06/25 09:47:53;;;;;;;4.40;3.13;;;26.90;99.90;;;;;;4990796;28;20100;-75
2023/06/25 09:50:32;;;;;;;5.55;3.53;;;26.90;99.90;;;;;;4988863;28;20073;-75
2023/06/25 09:53:05;;;;;;;7.50;3.28;;;27.10;99.90;;;;;;4970511;28;20046;-75
2023/06/25 09:55:34;;;;;;;6.47;3.28;;;27.10;99.90;;;;;;4990173;28;20560;-75
2023/06/25 09:58:01;;;;;;;5.88;2.88;;;27.20;99.90;;;;;;4983592;28;20052;-75
2023/06/25 10:00:27;;;;;;;6.30;3.45;;;27.20;99.90;;;;;;4985861;28;20046;-75
2023/06/25 10:02:53;;;;;;;6.57;2.80;;;27.30;99.90;;;;;;4982417;28;20057;-75
2023/06/25 10:05:19;;;;;;;4.30;2.85;;;27.40;99.90;;;;;;4986577;28;20103;-76
2023/06/25 10:07:45;;;;;;;4.18;2.72;;;27.50;99.30;;;;;;4989333;28;20176;-75
2023/06/25 10:10:27;;;;;;;7.07;3.20;;;27.50;98.80;;;;;;4971654;28;20053;-76
2023/06/25 10:12:53;;;;;;;4.72;2.78;;;27.60;98.70;;;;;;4978988;28;20041;-75
2023/06/25 10:15:32;;;;;;;5.32;2.80;;;27.70;98.60;;;;;;4985383;28;20073;-77
2023/06/25 10:18:00;;;;;;;3.75;2.67;;;27.70;97.50;;;;;;4985964;28;20049;-78
2023/06/25 10:20:31;;;;;;;5.47;2.95;;;27.70;97.60;;;;;;5007078;28;20431;-76
2023/06/25 10:23:10;;;;;;;5.50;2.90;;;27.70;97.40;;;;;;4991795;28;20046;-76
2023/06/25 10:25:39;;;;;;;4.05;3.15;;;27.80;97.40;;;;;;4977658;28;20053;-80
2023/06/25 10:28:13;;;;;;;3.90;2.40;;;27.80;97.00;;;;;;4967751;28;20129;-78
2023/06/25 10:30:47;;;;;;;4.15;2.70;;;28.00;96.90;;;;;;4993290;28;20136;-76
2023/06/25 10:33:17;;;;;;;4.30;2.83;;;28.10;96.30;;;;;;4990494;28;20097;-80
2023/06/25 10:36:10;;;;;;;8.65;3.03;;;28.20;95.20;;;;;;4992364;28;20038;-78
2023/06/25 10:38:36;;;;;;;5.97;2.40;;;28.20;94.70;;;;;;4990673;28;20099;-78
2023/06/25 10:41:01;;;;;;;4.55;2.72;;;28.30;95.60;;;;;;4984576;28;20056;-78
2023/06/25 10:43:27;;;;;;;4.38;2.85;;;28.40;95.00;;;;;;4989135;28;20110;-75
2023/06/25 10:45:54;;;;;;;8.65;2.58;;;28.50;94.50;;;;;;4978474;28;20412;-78
2023/06/25 10:48:22;;;;;;;3.80;2.38;;;28.50;94.00;;;;;;4989592;28;20287;-73
2023/06/25 10:50:48;;;;;;;3.20;2.40;;;28.60;93.90;;;;;;5010697;28;20100;-73
2023/06/25 10:53:19;;;;;;;7.28;2.53;;;28.70;93.60;;;;;;5004298;28;20451;-72
2023/06/25 10:55:47;;;;;;;4.63;2.78;;;28.80;93.10;;;;;;4981952;28;20061;-71
2023/06/25 10:58:19;;;;;;;3.80;2.45;;;28.90;92.60;;;;;;4986326;28;20077;-72
2023/06/25 11:00:45;;;;;;;4.78;2.17;;;29.00;92.10;;;;;;5005223;28;20042;-74
2023/06/25 11:03:12;;;;;;;3.95;2.30;;;29.00;91.60;;;;;;4986809;28;20133;-72
2023/06/25 11:05:42;;;;;;;3.40;2.38;;;29.10;90.90;;;;;;4991205;28;20046;-76
2023/06/25 11:08:08;;;;;;;3.92;2.60;;;29.20;90.70;;;;;;4974158;28;20049;-76
2023/06/25 11:10:35;;;;;;;4.88;2.33;;;29.30;90.20;;;;;;4988957;28;20061;-77
2023/06/25 11:13:01;;;;;;;3.53;2.33;;;29.40;89.60;;;;;;4991404;28;20034;-75
2023/06/25 11:15:32;;;;;;;6.13;2.35;;;29.40;88.30;;;;;;5000144;28;20102;-72
2023/06/25 11:17:58;;;;;;;5.40;2.42;;;29.50;86.00;;;;;;4986199;28;20034;-71
2023/06/25 11:20:24;;;;;;;3.75;2.47;;;29.60;83.80;;;;;;4988619;28;20172;-72
2023/06/25 11:22:50;;;;;;;5.20;2.35;;;29.60;83.50;;;;;;5005905;28;20052;-77
2023/06/25 11:25:18;;;;;;;4.80;2.40;;;29.70;83.70;;;;;;4972065;28;20049;-75
2023/06/25 11:27:44;;;;;;;4.85;2.40;;;29.70;82.10;;;;;;4985059;28;20061;-76
2023/06/25 11:30:10;;;;;;;3.90;2.20;;;29.80;79.40;;;;;;4983797;28;20563;-71
2023/06/25 11:32:39;;;;;;;3.53;2.30;;;29.90;77.40;;;;;;4991069;28;20046;-71
2023/06/25 11:35:10;;;;;;;3.38;2.33;;;29.90;76.20;;;;;;5006093;28;20046;-71
2023/06/25 11:37:47;;;;;;;5.00;2.50;;;30.00;75.90;;;;;;5007180;28;20038;-71
2023/06/25 11:40:21;;;;;;;3.65;2.13;;;30.00;75.60;;;;;;4988696;28;20046;-72
2023/06/25 11:42:47;;;;;;;3.58;2.30;;;30.10;75.50;;;;;;4988656;28;20072;-71
2023/06/25 11:45:12;;;;;;;4.78;2.28;;;30.20;75.30;;;;;;4990072;28;20057;-72
2023/06/25 11:47:43;;;;;;;3.63;2.28;;;30.30;74.20;;;;;;5005579;28;20037;-70
2023/06/25 11:50:11;;;;;;;4.57;3.10;;;30.30;72.60;;;;;;4989049;28;20050;-72
2023/06/25 11:52:37;;;;;;;3.72;2.17;;;30.40;70.60;;;;;;4988243;28;20047;-72
2023/06/25 11:55:05;;;;;;;4.93;2.63;;;30.40;69.40;;;;;;4989250;28;20162;-72
2023/06/25 11:57:31;;;;;;;4.32;2.45;;;30.40;68.70;;;;;;4988931;28;20045;-72
2023/06/25 11:59:56;;;;;;;4.60;2.80;;;30.50;68.70;;;;;;5006454;28;20481;-72
2023/06/25 12:02:22;;;;;;;4.65;2.65;;;30.50;68.60;;;;;;4989184;28;20045;-72
2023/06/25 12:04:48;;;;;;;6.50;2.85;;;30.60;67.90;;;;;;5006374;28;20096;-72
2023/06/25 12:07:13;;;;;;;5.25;2.90;;;30.60;67.50;;;;;;5003442;28;20450;-71
2023/06/25 12:09:39;;;;;;;5.63;2.90;;;30.70;65.80;;;;;;5003159;28;20042;-72
2023/06/25 12:12:05;;;;;;;5.53;3.00;;;30.70;64.70;;;;;;4989772;28;20045;-71
2023/06/25 12:14:31;;;;;;;5.07;3.20;;;30.80;64.00;;;;;;5009346;28;20046;-72
2023/06/25 12:16:56;;;;;;;4.82;3.10;;;30.90;63.80;;;;;;5004285;28;20123;-72
2023/06/25 12:19:22;;;;;;;4.57;2.80;;;30.90;64.40;;;;;;4987338;28;20049;-72
2023/06/25 12:21:48;;;;;;;5.93;3.03;;;31.00;64.10;;;;;;4983645;28;20492;-72
2023/06/25 12:24:14;;;;;;;4.68;2.60;;;31.00;63.10;;;;;;4987232;28;20526;-72
2023/06/25 12:26:39;;;;;;;4.28;2.88;;;31.00;63.30;;;;;;4981917;28;20054;-71
2023/06/25 12:29:05;;;;;;;4.57;2.95;;;31.00;63.70;;;;;;5004650;28;20139;-72
2023/06/25 12:31:31;;;;;;;5.07;2.78;;;31.10;64.50;;;;;;4989282;28;20045;-72
2023/06/25 12:33:57;;;;;;;4.40;2.92;;;31.00;63.10;;;;;;5004237;28;20069;-71
2023/06/25 12:36:23;;;;;;;6.55;2.72;;;31.10;63.20;;;;;;4986849;28;20484;-71
2023/06/25 12:38:48;;;;;;;3.88;2.17;;;31.20;63.70;;;;;;4986522;28;20034;-72
2023/06/25 12:41:14;;;;;;;5.63;2.60;;;31.30;63.40;;;;;;4983244;28;20093;-72
2023/06/25 12:43:39;;;;;;;4.38;2.45;;;31.40;62.50;;;;;;4981596;28;20061;-72
2023/06/25 12:46:05;;;;;;;4.05;2.90;;;31.60;61.70;;;;;;5003145;28;20357;-71